Time;durP1;ratioP1;P1;durP2;ratioP2;P2;SDS_P1;SDS_P2;PMS_P1;PMS_P2;Temp;Humidity;BMP_temperature;BMP_pressure;BME280_temperature;BME280_humidity;BME280_pressure;Samples;Min_cycle;Max_cycle;Signal;HPM_P1;HPM_P2
2023/10/29 00:02:44;;;;;;;4.63;1.90;;;;;;;12.33;100.00;99077.81;6273753;22;20066;-96
2023/10/29 00:05:20;;;;;;;3.00;1.30;;;;;;;12.35;100.00;99076.06;6256014;22;20049;-96
2023/10/29 00:07:49;;;;;;;3.08;1.40;;;;;;;12.39;100.00;99065.56;6257769;22;20010;-96
2023/10/29 00:10:26;;;;;;;;;;;;;;;;;;;;;
2023/10/29 00:13:07;;;;;;;3.45;1.27;;;;;;;12.40;100.00;99067.28;6287687;22;20390;-96
2023/10/29 00:15:39;;;;;;;4.32;1.40;;;;;;;12.41;100.00;99058.56;6258603;22;20426;-96
2023/10/29 00:18:14;;;;;;;4.55;1.50;;;;;;;12.42;100.00;99042.88;6260115;22;20078;-96
2023/10/29 00:20:43;;;;;;;4.72;1.27;;;;;;;12.41;100.00;99040.28;6260600;22;20035;-96
2023/10/29 00:23:47;;;;;;;3.43;1.40;;;;;;;12.43;100.00;99028.09;6265033;22;20003;-96
2023/10/29 00:26:16;;;;;;;3.25;1.35;;;;;;;12.44;100.00;99006.28;6271489;22;20019;-96
2023/10/29 00:28:45;;;;;;;4.15;1.50;;;;;;;12.45;100.00;98997.56;6316815;22;20011;-96
2023/10/29 00:31:16;;;;;;;4.18;1.50;;;;;;;12.45;100.00;98992.34;6317510;22;20003;-96
2023/10/29 00:33:48;;;;;;;3.13;1.33;;;;;;;12.45;100.00;98989.75;6315810;22;20088;-96
2023/10/29 00:36:20;;;;;;;5.03;1.40;;;;;;;12.42;100.00;99000.22;6290023;22;20075;-96
2023/10/29 00:38:55;;;;;;;3.83;1.23;;;;;;;12.41;100.00;98999.38;6318456;22;20061;-96
2023/10/29 00:41:40;;;;;;;3.75;1.52;;;;;;;12.42;100.00;98974.97;6317368;22;20030;-96
2023/10/29 00:44:22;;;;;;;2.67;1.15;;;;;;;12.49;100.00;99025.38;6287909;22;20003;-96
2023/10/29 00:50:06;;;;;;;;;;;;;;;;;;;;;
2023/10/29 00:52:37;;;;;;;3.33;1.40;;;;;;;12.62;100.00;99005.19;6315322;22;20022;-96
2023/10/29 00:55:03;;;;;;;3.50;1.23;;;;;;;12.65;100.00;99005.13;6286167;22;20007;-96
2023/10/29 00:57:56;;;;;;;3.90;1.42;;;;;;;12.71;100.00;99005.03;6284115;22;20029;-96
2023/10/29 01:00:31;;;;;;;3.53;1.20;;;;;;;12.76;100.00;98998.00;6289046;22;20007;-96
2023/10/29 01:03:02;;;;;;;6.15;1.80;;;;;;;12.79;100.00;98986.63;6289330;22;20437;-96
2023/10/29 01:05:48;;;;;;;4.53;1.30;;;;;;;12.81;100.00;98988.31;6288017;22;20007;-96
2023/10/29 01:08:16;;;;;;;4.93;1.35;;;;;;;12.82;100.00;98982.22;6313444;22;20007;-96
2023/10/29 01:10:45;;;;;;;3.30;1.13;;;;;;;12.83;100.00;98981.34;6313386;22;20039;-96
2023/10/29 01:13:21;;;;;;;3.15;1.20;;;;;;;12.87;100.00;98979.53;6286571;22;20253;-96
2023/10/29 01:16:04;;;;;;;4.05;1.38;;;;;;;12.94;100.00;98972.47;6319428;22;20445;-96
2023/10/29 01:18:40;;;;;;;3.90;1.35;;;;;;;12.98;100.00;98969.78;6292167;22;20003;-96
2023/10/29 01:21:12;;;;;;;3.63;1.20;;;;;;;13.01;100.00;98953.19;6287187;22;19999;-96
2023/10/29 01:23:38;;;;;;;5.07;1.30;;;;;;;13.02;100.00;98954.88;6312143;22;20011;-96
2023/10/29 01:26:04;;;;;;;2.42;1.20;;;;;;;13.01;100.00;98947.94;6317463;22;20026;-96
2023/10/29 01:28:36;;;;;;;2.92;1.08;;;;;;;12.97;100.00;98970.66;6323802;22;20002;-96
2023/10/29 01:31:01;;;;;;;3.63;1.23;;;;;;;12.97;100.00;98962.81;6288156;22;20044;-96
2023/10/29 01:33:32;;;;;;;3.03;1.20;;;;;;;12.97;100.00;98960.19;6265087;22;20054;-96
2023/10/29 01:36:00;;;;;;;4.20;1.10;;;;;;;12.97;100.00;98959.34;6258945;22;20454;-96
2023/10/29 01:38:32;;;;;;;3.53;1.40;;;;;;;12.97;100.00;98954.09;6255268;22;20010;-96
2023/10/29 01:41:00;;;;;;;5.07;1.27;;;;;;;12.96;100.00;98942.81;6254449;22;20026;-96
2023/10/29 01:43:42;;;;;;;3.93;1.30;;;;;;;13.00;100.00;98948.81;6256851;22;20018;-96
2023/10/29 01:46:08;;;;;;;3.08;1.10;;;;;;;12.96;100.00;98937.56;6282074;22;19999;-96
2023/10/29 01:48:45;;;;;;;3.45;1.27;;;;;;;12.92;100.00;98930.66;6257653;22;20065;-96
2023/10/29 01:51:15;;;;;;;3.05;1.30;;;;;;;12.89;100.00;98933.34;6258470;22;20000;-96
2023/10/29 01:53:59;;;;;;;2.30;1.05;;;;;;;12.84;100.00;98919.47;6259302;22;20007;-96
2023/10/29 01:56:46;;;;;;;3.17;1.00;;;;;;;12.83;100.00;98936.03;6284114;22;20007;-96
2023/10/29 01:59:14;;;;;;;3.25;1.20;;;;;;;12.81;100.00;98946.50;6252876;23;20083;-96
2023/10/29 02:01:41;;;;;;;3.75;1.38;;;;;;;12.77;100.00;98929.16;6239011;22;20215;-96
2023/10/29 02:04:15;;;;;;;2.50;1.20;;;;;;;12.73;100.00;98950.13;6285243;22;20003;-96
2023/10/29 02:06:51;;;;;;;4.95;1.20;;;;;;;12.72;100.00;98951.91;6260968;22;20031;-96
2023/10/29 02:09:37;;;;;;;2.42;1.00;;;;;;;12.70;100.00;98944.09;6262817;22;20480;-96
2023/10/29 02:12:03;;;;;;;2.45;1.20;;;;;;;12.72;100.00;98954.50;6262667;22;20008;-96
2023/10/29 02:14:52;;;;;;;2.78;1.10;;;;;;;12.74;100.00;98952.72;6262316;22;20169;-96
2023/10/29 02:17:28;;;;;;;3.03;1.30;;;;;;;12.72;100.00;98948.44;6261730;22;20043;-96
2023/10/29 02:19:59;;;;;;;3.13;1.33;;;;;;;12.75;100.00;98943.16;6257617;22;20008;-96
2023/10/29 02:22:51;;;;;;;3.17;1.20;;;;;;;12.80;100.00;98947.41;6257483;22;20000;-96
2023/10/29 02:25:40;;;;;;;3.88;1.42;;;;;;;12.77;100.00;98925.69;6255212;22;20058;-97
2023/10/29 02:28:29;;;;;;;2.97;1.27;;;;;;;12.81;100.00;98937.81;6268304;22;20004;-96
2023/10/29 02:31:02;;;;;;;;;;;;;;;12.83;100.00;98941.25;6337507;22;19998;-96
2023/10/29 02:33:43;;;;;;;3.42;1.10;;;;;;;12.82;100.00;98943.03;6325326;22;19932;-96
2023/10/29 02:36:12;;;;;;;5.63;1.20;;;;;;;12.79;100.00;98937.84;6324421;22;20003;-96
2023/10/29 02:39:01;;;;;;;3.88;1.30;;;;;;;12.77;100.00;98949.19;6324350;22;20073;-96
2023/10/29 02:41:37;;;;;;;4.38;1.40;;;;;;;12.77;100.00;98930.91;6323310;22;20003;-96
2023/10/29 02:44:03;;;;;;;3.55;1.20;;;;;;;12.81;100.00;98953.50;6324384;22;20021;-96
2023/10/29 02:46:52;;;;;;;3.08;1.30;;;;;;;12.80;100.00;98936.97;6323414;22;20019;-96
2023/10/29 02:49:26;;;;;;;3.17;1.27;;;;;;;12.81;100.00;98927.38;6304179;22;20037;-96
2023/10/29 02:52:00;;;;;;;3.03;1.20;;;;;;;12.81;100.00;98943.03;6323030;22;20006;-97
2023/10/29 02:54:37;;;;;;;2.90;1.00;;;;;;;12.88;100.00;98945.53;6322282;22;20028;-96
2023/10/29 02:57:02;;;;;;;3.05;1.10;;;;;;;12.92;100.00;98942.84;6319798;22;20003;-96
2023/10/29 02:59:28;;;;;;;3.95;1.10;;;;;;;12.95;100.00;98935.84;6323252;22;20433;-96
2023/10/29 03:02:02;;;;;;;3.55;1.23;;;;;;;13.02;100.00;98931.34;6323938;22;20007;-96
2023/10/29 03:04:37;;;;;;;2.45;1.00;;;;;;;13.06;100.00;98930.41;6325819;22;20521;-96
2023/10/29 03:07:02;;;;;;;2.70;1.00;;;;;;;13.08;100.00;98928.66;6323374;22;20421;-96
2023/10/29 03:09:42;;;;;;;4.25;1.10;;;;;;;13.06;100.00;98930.41;6322114;22;20056;-96
2023/10/29 03:12:12;;;;;;;;;;;;;;;13.11;100.00;98923.34;6321264;22;20066;-96
2023/10/29 03:15:02;;;;;;;3.55;0.90;;;;;;;13.08;100.00;98920.81;6319952;22;19903;-96
2023/10/29 03:17:50;;;;;;;2.35;1.10;;;;;;;13.12;100.00;98922.47;6320420;22;20054;-96
2023/10/29 03:23:21;;;;;;;2.35;1.10;;;;;;;13.19;100.00;98924.09;6351549;22;20046;-96
2023/10/29 03:25:47;;;;;;;2.80;1.05;;;;;;;13.21;100.00;98932.75;6322754;22;20014;-96
2023/10/29 03:28:18;;;;;;;3.75;0.90;;;;;;;13.26;100.00;98934.44;6322793;22;20075;-96
2023/10/29 03:30:50;;;;;;;5.90;1.08;;;;;;;13.26;100.00;98943.13;6324446;22;20050;-96
2023/10/29 03:33:21;;;;;;;3.20;1.02;;;;;;;13.27;100.00;98937.03;6324812;22;20440;-96
2023/10/29 03:35:52;;;;;;;1.70;0.90;;;;;;;13.25;100.00;98944.00;6323621;22;20010;-96
2023/10/29 03:38:41;;;;;;;2.35;0.98;;;;;;;13.22;100.00;98949.31;6322870;22;20003;-96
2023/10/29 03:41:21;;;;;;;3.97;1.10;;;;;;;13.16;100.00;98939.81;6322270;22;20007;-96
2023/10/29 03:43:49;;;;;;;;;;;;;;;13.16;100.00;98949.41;6325098;22;20007;-96
2023/10/29 03:46:23;;;;;;;3.92;0.90;;;;;;;13.12;100.00;98932.94;6323156;22;19910;-96
2023/10/29 03:48:58;;;;;;;2.58;0.90;;;;;;;13.05;100.00;98942.63;6326103;22;20002;-96
2023/10/29 03:51:31;;;;;;;3.50;1.00;;;;;;;12.99;100.00;98932.28;6328878;22;20100;-96
2023/10/29 03:54:28;;;;;;;2.08;0.82;;;;;;;12.95;100.00;98929.75;6326924;22;20002;-96
2023/10/29 03:57:01;;;;;;;2.35;1.08;;;;;;;12.91;100.00;98936.78;6326402;22;20006;-96
2023/10/29 03:59:35;;;;;;;2.75;1.00;;;;;;;12.92;100.00;98941.13;6325984;22;20007;-96
2023/10/29 04:02:04;;;;;;;2.75;1.00;;;;;;;12.91;100.00;98942.00;6326983;22;20002;-96
2023/10/29 04:04:55;;;;;;;4.10;1.35;;;;;;;12.92;100.00;98941.13;6328226;22;20003;-96
2023/10/29 04:10:28;;;;;;;3.05;0.98;;;;;;;12.96;100.00;98941.91;6356161;22;20007;-96
2023/10/29 04:13:02;;;;;;;2.88;1.00;;;;;;;12.98;100.00;98930.56;6326977;22;19999;-96
2023/10/29 04:15:49;;;;;;;3.08;1.05;;;;;;;13.01;100.00;98927.88;6325694;22;20006;-96
2023/10/29 04:18:19;;;;;;;2.85;1.17;;;;;;;13.03;100.00;98951.38;6325143;22;20007;-96
2023/10/29 04:20:47;;;;;;;2.15;1.00;;;;;;;13.08;100.00;98933.00;6325505;22;20010;-96
2023/10/29 04:26:06;;;;;;;3.25;1.00;;;;;;;13.04;100.00;98961.81;6324893;22;20023;-96
2023/10/29 04:31:47;;;;;;;3.83;1.30;;;;;;;13.08;100.00;98969.59;6326358;22;20047;-96
2023/10/29 04:37:54;;;;;;;3.38;1.20;;;;;;;13.06;100.00;98948.72;6321198;22;20013;-96
2023/10/29 04:40:33;;;;;;;2.70;1.00;;;;;;;13.02;100.00;98955.75;6296129;22;19999;-96
2023/10/29 04:43:02;;;;;;;4.22;1.23;;;;;;;13.03;100.00;98964.44;6301222;22;20055;-96
2023/10/29 04:45:40;;;;;;;4.03;1.10;;;;;;;13.02;100.00;98958.38;6299863;22;20014;-96
2023/10/29 04:51:30;;;;;;;6.85;1.30;;;;;;;13.05;100.00;98957.47;6325705;22;20033;-96
2023/10/29 04:54:00;;;;;;;5.63;1.10;;;;;;;13.07;100.00;98962.66;6296659;22;20003;-96
2023/10/29 04:56:38;;;;;;;4.18;1.13;;;;;;;13.08;100.00;98957.41;6295370;22;20014;-96
2023/10/29 04:59:25;;;;;;;4.75;1.10;;;;;;;13.11;100.00;98961.72;6293559;22;20003;-96
2023/10/29 05:01:53;;;;;;;3.97;2.05;;;;;;;13.08;100.00;98967.00;6293096;22;20098;-96
2023/10/29 05:04:23;;;;;;;3.90;1.00;;;;;;;13.07;100.00;98955.69;6294810;22;20045;-96
2023/10/29 05:06:55;;;;;;;4.25;1.23;;;;;;;13.05;100.00;98962.69;6293829;22;20007;-96
2023/10/29 05:09:45;;;;;;;2.65;1.13;;;;;;;13.05;100.00;98960.09;6291893;22;20063;-96
2023/10/29 05:12:16;;;;;;;3.63;1.10;;;;;;;13.02;100.00;98963.59;6294136;22;20054;-96
2023/10/29 05:14:52;;;;;;;3.45;1.00;;;;;;;12.97;100.00;98975.88;6294207;22;20010;-96
2023/10/29 05:17:28;;;;;;;3.45;1.13;;;;;;;13.03;100.00;99001.06;6294558;22;20008;-96
2023/10/29 05:19:57;;;;;;;5.35;1.00;;;;;;;12.95;100.00;99014.25;6296006;22;20003;-96
2023/10/29 05:22:22;;;;;;;4.40;1.20;;;;;;;12.95;100.00;99019.50;6298160;22;20142;-96
2023/10/29 05:24:48;;;;;;;4.85;1.10;;;;;;;12.87;100.00;99010.91;6285616;22;20068;-96
2023/10/29 05:27:17;;;;;;;5.00;1.42;;;;;;;12.77;100.00;99015.38;6288077;22;20007;-96
2023/10/29 05:29:54;;;;;;;5.10;0.90;;;;;;;12.69;100.00;99025.13;6288891;22;20033;-96
2023/10/29 05:32:31;;;;;;;4.35;0.93;;;;;;;12.54;100.00;99015.72;6286142;22;20004;-96
2023/10/29 05:35:03;;;;;;;2.00;0.60;;;;;;;12.45;100.00;99013.25;6289540;22;20037;-96
2023/10/29 05:37:28;;;;;;;1.45;0.50;;;;;;;12.50;100.00;99001.00;6312044;22;20425;-96
2023/10/29 05:39:57;;;;;;;1.52;0.70;;;;;;;12.32;100.00;99008.19;6287728;22;20010;-96
2023/10/29 05:42:43;;;;;;;3.25;0.80;;;;;;;12.16;100.00;99007.50;6287089;22;19999;-96
2023/10/29 05:45:40;;;;;;;1.65;0.70;;;;;;;12.11;100.00;99030.22;6284835;22;20007;-96
2023/10/29 05:48:05;;;;;;;2.97;0.85;;;;;;;12.12;100.00;99031.97;6283554;22;20003;-96
2023/10/29 05:50:52;;;;;;;3.42;0.85;;;;;;;12.13;100.00;99043.25;6284236;22;20328;-96
2023/10/29 05:53:23;;;;;;;4.13;0.88;;;;;;;11.96;100.00;99038.22;6284041;22;20007;-96
2023/10/29 05:56:01;;;;;;;3.80;0.80;;;;;;;11.93;100.00;99046.94;6284556;22;20464;-96
2023/10/29 05:58:35;;;;;;;3.47;0.85;;;;;;;11.93;100.00;99054.78;6284275;22;20433;-96
2023/10/29 06:01:01;;;;;;;3.67;1.10;;;;;;;11.87;100.00;99057.41;6284998;22;20011;-96
2023/10/29 06:03:44;;;;;;;3.28;0.90;;;;;;;11.85;100.00;99059.19;6288087;22;20444;-96
2023/10/29 06:06:16;;;;;;;4.60;1.10;;;;;;;11.83;100.00;99077.47;6290709;22;20056;-96
2023/10/29 06:08:52;;;;;;;5.35;1.50;;;;;;;11.84;100.00;99087.00;6319370;22;20086;-96
2023/10/29 06:11:21;;;;;;;3.53;1.05;;;;;;;11.83;100.00;99081.81;6290704;22;20007;-96
2023/10/29 06:13:53;;;;;;;4.85;1.30;;;;;;;11.89;100.00;99102.66;6316469;22;20064;-96
2023/10/29 06:16:39;;;;;;;7.40;1.40;;;;;;;11.82;100.00;99099.22;6290349;22;20007;-96
2023/10/29 06:19:10;;;;;;;4.10;1.23;;;;;;;11.85;100.00;99121.81;6291805;22;20087;-96
2023/10/29 06:21:54;;;;;;;4.07;1.10;;;;;;;11.86;100.00;99110.53;6291091;22;20437;-96
2023/10/29 06:24:50;;;;;;;5.20;1.30;;;;;;;11.81;100.00;99109.69;6302229;22;20019;-96
2023/10/29 06:27:24;;;;;;;5.60;1.30;;;;;;;11.80;100.00;99119.25;6320577;22;20003;-96
2023/10/29 06:30:16;;;;;;;5.68;1.10;;;;;;;11.77;100.00;99123.63;6324554;22;20026;-96
2023/10/29 06:32:47;;;;;;;3.40;1.05;;;;;;;11.75;100.00;99131.47;6314103;22;20111;-96
2023/10/29 06:35:42;;;;;;;4.25;1.10;;;;;;;11.75;100.00;99128.00;6321513;22;20395;-96
2023/10/29 06:38:14;;;;;;;6.93;1.40;;;;;;;11.76;100.00;99121.88;6322037;22;19999;-96
2023/10/29 06:40:57;;;;;;;8.60;1.60;;;;;;;11.75;100.00;99130.63;6317132;22;20007;-96
2023/10/29 06:43:36;;;;;;;4.97;1.25;;;;;;;11.74;100.00;99140.19;6288555;22;20026;-96
2023/10/29 06:46:02;;;;;;;7.20;1.30;;;;;;;11.71;100.00;99137.59;6319610;22;20026;-96
2023/10/29 06:48:41;;;;;;;4.68;1.10;;;;;;;11.73;100.00;99148.00;6319315;22;20007;-96
2023/10/29 06:51:18;;;;;;;4.47;1.13;;;;;;;11.70;100.00;99155.88;6319722;22;20003;-96
2023/10/29 06:54:00;;;;;;;;;;;;;;;;;;;;;
2023/10/29 06:56:28;;;;;;;6.25;1.40;;;;;;;11.64;100.00;99165.50;6353032;22;19998;-96
2023/10/29 06:59:14;;;;;;;5.00;0.98;;;;;;;11.64;100.00;99165.50;6322665;22;20043;-96
2023/10/29 07:02:21;;;;;;;6.15;1.10;;;;;;;11.63;100.00;99171.59;6320449;22;20006;-96
2023/10/29 07:04:58;;;;;;;6.25;1.25;;;;;;;11.59;100.00;99175.09;6321416;22;20433;-96
2023/10/29 07:07:39;;;;;;;;;;;;;;;;;;;;;
2023/10/29 07:10:20;;;;;;;6.32;1.35;;;;;;;11.57;100.00;99184.69;6349570;22;20025;-96
2023/10/29 07:12:53;;;;;;;5.35;1.10;;;;;;;11.57;100.00;99199.44;6318545;22;20078;-96
2023/10/29 07:15:33;;;;;;;6.10;1.50;;;;;;;11.53;100.00;99200.34;6323598;22;20010;-96
2023/10/29 07:18:03;;;;;;;;;;;;;;;11.57;100.00;99205.56;6323716;22;20017;-97
2023/10/29 07:20:35;;;;;;;5.05;1.42;;;;;;;11.55;100.00;99203.81;6322418;22;19903;-96
2023/10/29 07:23:03;;;;;;;7.38;1.58;;;;;;;11.54;100.00;99209.91;6316283;22;20086;-96
2023/10/29 07:25:37;;;;;;;6.05;1.90;;;;;;;11.57;100.00;99195.13;6320108;22;20015;-96
2023/10/29 07:28:11;;;;;;;5.90;1.30;;;;;;;11.62;100.00;99219.41;6325326;22;20101;-96
2023/10/29 07:30:48;;;;;;;6.22;1.50;;;;;;;11.64;100.00;99217.69;6325408;22;20033;-96
2023/10/29 07:33:26;;;;;;;6.20;1.27;;;;;;;11.69;100.00;99230.69;6325399;22;20022;-96
2023/10/29 07:35:56;;;;;;;8.30;1.45;;;;;;;11.70;100.00;99242.81;6321285;22;20421;-96
2023/10/29 07:38:28;;;;;;;6.03;1.70;;;;;;;11.71;100.00;99234.13;6319734;22;20071;-96
2023/10/29 07:41:27;;;;;;;7.82;1.48;;;;;;;11.75;100.00;99230.63;6315848;22;20003;-96
2023/10/29 07:44:01;;;;;;;6.20;1.50;;;;;;;11.79;100.00;99241.94;6312086;22;20441;-96
2023/10/29 07:46:27;;;;;;;5.30;1.50;;;;;;;11.82;100.00;99236.69;6316249;22;20341;-96
2023/10/29 07:49:01;;;;;;;9.30;1.80;;;;;;;11.85;100.00;99247.09;6316067;22;20007;-96
2023/10/29 07:51:41;;;;;;;6.40;1.50;;;;;;;11.94;100.00;99246.19;6318010;22;20006;-96
2023/10/29 07:54:14;;;;;;;6.22;1.88;;;;;;;11.92;100.00;99254.00;6319260;22;20059;-96
2023/10/29 07:57:02;;;;;;;11.18;1.77;;;;;;;11.93;100.00;99249.63;6322979;22;20429;-96
2023/10/29 08:02:03;;;;;;;6.28;1.50;;;;;;;12.03;100.00;99256.53;6242564;22;20256;-96
2023/10/29 08:04:35;;;;;;;7.50;1.33;;;;;;;12.07;100.00;99245.19;6293904;22;20063;-96
2023/10/29 08:07:00;;;;;;;5.03;1.20;;;;;;;12.09;100.00;99251.25;6292304;22;20037;-96
2023/10/29 08:09:35;;;;;;;6.93;1.40;;;;;;;12.16;100.00;99246.88;6292980;22;20102;-96
2023/10/29 08:15:03;;;;;;;6.13;1.55;;;;;;;12.30;100.00;99285.94;6303224;22;20038;-96
2023/10/29 08:22:58;;;;;;;4.88;1.45;;;;;;;12.37;100.00;99282.38;6294221;22;20033;-96
2023/10/29 08:25:38;;;;;;;8.35;1.88;;;;;;;12.38;100.00;99284.09;6322303;22;19988;-96
2023/10/29 08:28:11;;;;;;;6.85;1.20;;;;;;;12.40;100.00;99303.25;6298453;22;20003;-96
2023/10/29 08:30:45;;;;;;;6.55;1.17;;;;;;;12.57;100.00;99278.69;6302211;22;20010;-96
2023/10/29 08:33:20;;;;;;;5.18;1.15;;;;;;;12.52;100.00;99289.22;6300024;22;20013;-96
2023/10/29 08:36:26;;;;;;;6.35;1.48;;;;;;;12.52;100.00;99287.44;6301717;22;20042;-96
2023/10/29 08:39:03;;;;;;;5.07;1.23;;;;;;;12.49;100.00;99299.69;6299020;22;20452;-96
2023/10/29 08:41:41;;;;;;;6.22;1.30;;;;;;;12.55;100.00;99304.84;6297882;22;20125;-96
2023/10/29 08:44:21;;;;;;;4.43;0.98;;;;;;;12.63;100.00;99292.59;6292455;22;20003;-96
2023/10/29 08:52:03;;;;;;;4.60;1.10;;;;;;;12.68;99.73;99327.38;6274300;22;20035;-96
2023/10/29 08:54:55;;;;;;;5.82;1.15;;;;;;;12.85;97.58;99342.03;6289845;22;20015;-96
2023/10/29 08:58:02;;;;;;;4.90;0.95;;;;;;;12.80;99.00;99335.97;6175854;23;20006;-96
2023/10/29 09:03:02;;;;;;;5.70;1.00;;;;;;;12.91;96.67;99339.34;6297849;22;20572;-96
2023/10/29 09:11:26;;;;;;;;;;;;;;;;;;;;;
2023/10/29 09:17:12;;;;;;;7.18;1.40;;;;;;;13.10;95.61;99373.16;6274141;22;20019;-96
2023/10/29 09:20:03;;;;;;;5.28;1.60;;;;;;;13.09;95.75;99376.66;6261245;22;20434;-96
2023/10/29 09:22:36;;;;;;;4.47;1.10;;;;;;;12.97;95.47;99388.94;6261877;22;20007;-96
2023/10/29 09:25:01;;;;;;;4.57;1.20;;;;;;;12.95;95.88;99385.50;6259627;22;20018;-96
2023/10/29 09:27:47;;;;;;;6.00;1.30;;;;;;;12.95;95.23;99380.28;6258728;22;19999;-96
2023/10/29 09:30:15;;;;;;;7.63;1.30;;;;;;;12.93;95.56;99378.53;6258535;22;20003;-96
2023/10/29 09:32:42;;;;;;;6.38;1.50;;;;;;;13.00;93.64;99383.69;6260262;22;20015;-96
2023/10/29 09:38:25;;;;;;;7.35;1.35;;;;;;;13.20;94.13;99377.41;6267610;22;20012;-96
2023/10/29 09:41:00;;;;;;;5.18;1.15;;;;;;;13.14;94.62;99370.47;6259863;22;20179;-96
2023/10/29 09:43:54;;;;;;;5.68;1.30;;;;;;;13.16;94.41;99394.84;6259339;22;20007;-96
2023/10/29 09:46:54;;;;;;;6.53;1.30;;;;;;;13.14;93.42;99380.09;6283881;22;20000;-96
2023/10/29 09:49:46;;;;;;;6.55;1.40;;;;;;;13.19;94.84;99384.41;6284053;22;20020;-96
2023/10/29 09:52:18;;;;;;;7.97;1.70;;;;;;;13.19;92.49;99388.75;6258843;22;20003;-96
2023/10/29 09:54:47;;;;;;;9.45;1.45;;;;;;;13.21;93.03;99387.00;6255077;22;20039;-96
2023/10/29 09:57:18;;;;;;;6.55;1.40;;;;;;;13.23;91.96;99393.91;6256199;22;20004;-96
2023/10/29 09:59:46;;;;;;;7.00;1.38;;;;;;;13.23;91.46;99385.22;6255082;22;20004;-96
2023/10/29 10:02:32;;;;;;;6.83;1.50;;;;;;;13.26;90.00;99366.00;6255388;22;20035;-96
2023/10/29 10:05:02;;;;;;;4.45;1.00;;;;;;;13.26;93.14;99355.53;6256145;22;20007;-96
2023/10/29 10:07:33;;;;;;;8.18;1.70;;;;;;;13.22;91.36;99363.44;6255181;22;20063;-96
2023/10/29 10:10:01;;;;;;;6.80;1.42;;;;;;;13.20;92.05;99354.72;6255640;22;20003;-96
2023/10/29 10:12:30;;;;;;;6.28;1.20;;;;;;;13.16;90.82;99358.25;6255085;22;20208;-96
2023/10/29 10:15:03;;;;;;;6.87;1.40;;;;;;;13.18;92.36;99355.66;6281169;22;19995;-96
2023/10/29 10:17:35;;;;;;;7.00;1.45;;;;;;;13.17;92.11;99354.75;6255205;22;20020;-96
2023/10/29 10:20:14;;;;;;;7.25;1.38;;;;;;;13.18;93.13;99351.25;6281094;22;20003;-96
2023/10/29 10:22:51;;;;;;;;;;;;;;;13.17;92.12;99352.13;6254684;22;20059;-96
2023/10/29 10:25:40;;;;;;;4.90;1.27;;;;;;;13.14;93.40;99353.94;6255366;22;19907;-96
2023/10/29 10:28:09;;;;;;;7.32;1.40;;;;;;;13.16;94.22;99344.31;6243808;22;20007;-96
2023/10/29 10:30:43;;;;;;;6.75;1.20;;;;;;;13.17;93.91;99335.59;6254705;22;20065;-96
2023/10/29 10:33:28;;;;;;;6.15;1.60;;;;;;;13.18;94.50;99346.03;6255199;22;20014;-96
2023/10/29 10:35:58;;;;;;;6.45;1.50;;;;;;;13.21;95.08;99348.63;6253884;22;20011;-96
2023/10/29 10:38:33;;;;;;;9.93;1.25;;;;;;;13.38;91.59;99347.56;6255668;22;20004;-96
2023/10/29 10:41:02;;;;;;;5.72;1.40;;;;;;;13.33;93.23;99362.44;6253013;22;20000;-96
2023/10/29 10:43:38;;;;;;;6.65;1.35;;;;;;;13.38;93.68;99372.00;6254766;22;20000;-96
2023/10/29 10:46:08;;;;;;;8.60;1.45;;;;;;;13.43;93.53;99382.41;6252871;22;20007;-96
2023/10/29 10:48:47;;;;;;;6.32;1.58;;;;;;;13.47;93.42;99389.34;6253184;22;20053;-96
2023/10/29 10:51:31;;;;;;;;;;;;;;;13.49;94.80;99394.56;6255585;22;19995;-96
2023/10/29 10:54:02;;;;;;;10.23;1.70;;;;;;;13.45;94.60;99392.84;6253702;22;19903;-96
2023/10/29 10:56:36;;;;;;;7.35;1.10;;;;;;;13.43;93.20;99382.41;6253475;22;20022;-96
2023/10/29 10:59:31;;;;;;;8.05;1.50;;;;;;;13.38;92.67;99385.09;6254116;22;20018;-96
2023/10/29 11:02:09;;;;;;;5.25;1.30;;;;;;;13.34;91.75;99377.25;6248612;22;20007;-96
2023/10/29 11:05:01;;;;;;;7.03;1.30;;;;;;;13.34;93.62;99377.25;6253283;22;20007;-96
2023/10/29 11:07:34;;;;;;;9.73;1.65;;;;;;;13.26;92.65;99364.25;6253150;22;20011;-96
2023/10/29 11:10:02;;;;;;;6.95;1.45;;;;;;;13.22;93.57;99375.63;6252300;22;20082;-96
2023/10/29 11:12:50;;;;;;;6.78;1.40;;;;;;;13.20;92.84;99382.63;6278846;22;19996;-96
2023/10/29 11:15:55;;;;;;;7.50;1.48;;;;;;;13.20;94.63;99385.25;6252258;22;20008;-96
2023/10/29 11:18:28;;;;;;;7.60;1.48;;;;;;;13.14;94.03;99370.47;6246952;22;20018;-96
2023/10/29 11:21:03;;;;;;;6.15;1.30;;;;;;;13.12;94.62;99363.53;6252761;22;20061;-96
2023/10/29 11:23:38;;;;;;;7.75;1.23;;;;;;;13.09;94.58;99353.09;6228713;22;20015;-96
2023/10/29 11:26:31;;;;;;;5.60;1.52;;;;;;;13.09;94.81;99353.09;6252843;22;20007;-96
2023/10/29 11:29:02;;;;;;;7.82;1.65;;;;;;;13.05;94.89;99334.84;6252494;22;20075;-96
2023/10/29 11:31:46;;;;;;;9.63;1.90;;;;;;;13.04;95.96;99319.16;6254924;22;20007;-96
2023/10/29 11:34:14;;;;;;;7.63;1.17;;;;;;;13.04;94.58;99317.41;6251681;22;20035;-96
2023/10/29 11:36:50;;;;;;;9.40;1.60;;;;;;;13.03;96.64;99307.84;6251453;22;20433;-96
2023/10/29 11:39:31;;;;;;;5.95;1.58;;;;;;;13.03;95.61;99306.97;6251989;22;20003;-96
2023/10/29 11:42:32;;;;;;;5.28;1.33;;;;;;;13.05;95.54;99307.84;6252931;22;20449;-96
2023/10/29 11:45:27;;;;;;;9.02;1.52;;;;;;;13.09;96.50;99303.41;6250190;22;20038;-96
2023/10/29 11:51:30;;;;;;;11.43;1.98;;;;;;;13.20;95.36;99280.63;6262202;22;20026;-96
2023/10/29 11:54:02;;;;;;;6.10;1.42;;;;;;;13.23;95.63;99280.59;6277534;22;20027;-96
2023/10/29 11:56:42;;;;;;;8.70;1.60;;;;;;;13.26;94.23;99277.06;6251565;22;20007;-96
2023/10/29 11:59:19;;;;;;;5.53;1.50;;;;;;;13.26;95.46;99270.09;6251014;22;20439;-96
2023/10/29 12:01:44;;;;;;;6.93;1.30;;;;;;;13.24;94.73;99269.25;6277192;22;20421;-96
2023/10/29 12:04:13;;;;;;;7.05;1.50;;;;;;;13.25;95.23;99267.50;6277084;22;20103;-96
2023/10/29 12:06:45;;;;;;;7.15;1.60;;;;;;;13.27;95.26;99258.75;6250479;22;20033;-96
2023/10/29 12:09:32;;;;;;;6.05;1.63;;;;;;;13.30;96.72;99266.53;6250801;22;20008;-96
2023/10/29 12:12:11;;;;;;;8.00;1.90;;;;;;;13.28;96.57;99289.25;6249410;22;19999;-96
2023/10/29 12:15:00;;;;;;;5.97;1.40;;;;;;;13.28;96.58;99289.25;6248782;22;20007;-96
2023/10/29 12:17:43;;;;;;;6.82;1.52;;;;;;;13.25;96.44;99273.56;6265985;22;20064;-96
2023/10/29 12:20:29;;;;;;;6.53;1.52;;;;;;;13.20;95.59;99286.72;6275722;22;20083;-96
2023/10/29 12:23:02;;;;;;;6.45;1.60;;;;;;;13.20;96.01;99278.00;6275193;22;20003;-96
2023/10/29 12:25:34;;;;;;;6.35;1.50;;;;;;;13.21;95.38;99272.75;6274971;22;20003;-96
2023/10/29 12:28:03;;;;;;;7.47;1.40;;;;;;;13.23;94.72;99270.13;6275768;22;20004;-96
2023/10/29 12:30:56;;;;;;;7.28;1.45;;;;;;;13.27;95.50;99271.81;6253669;22;20052;-96
2023/10/29 12:33:31;;;;;;;8.63;1.40;;;;;;;13.26;95.11;99285.78;6286873;22;20007;-96
2023/10/29 13:17:31;;;;;;;6.13;1.50;;;;;;;13.60;92.52;99243.50;6304724;22;20013;-96
2023/10/29 13:20:03;;;;;;;4.40;1.17;;;;;;;13.57;90.84;99227.84;6265251;22;20518;-96
2023/10/29 13:22:45;;;;;;;5.30;1.10;;;;;;;13.52;91.01;99230.50;6287580;22;20011;-96
2023/10/29 13:25:29;;;;;;;8.65;1.33;;;;;;;13.47;92.17;99228.84;6286469;22;20008;-96
2023/10/29 13:27:57;;;;;;;6.97;1.50;;;;;;;13.42;94.90;99249.00;6282217;22;20065;-96
2023/10/29 13:30:24;;;;;;;11.57;4.75;;;;;;;13.34;96.58;99252.56;6281836;22;20485;-96
2023/10/29 13:33:02;;;;;;;9.20;2.35;;;;;;;13.24;98.82;99240.47;6287251;22;20003;-96
2023/10/29 13:35:30;;;;;;;8.27;3.47;;;;;;;13.11;100.00;99246.75;6310668;22;20032;-96
2023/10/29 13:37:56;;;;;;;5.00;1.70;;;;;;;12.99;100.00;99243.41;6287850;22;20084;-96
2023/10/29 13:40:21;;;;;;;7.18;3.60;;;;;;;12.84;100.00;99240.97;6309951;22;20147;-96
2023/10/29 13:42:47;;;;;;;14.88;7.40;;;;;;;12.77;100.00;99244.53;6303426;22;20014;-96
2023/10/29 13:45:13;;;;;;;7.65;2.80;;;;;;;12.72;100.00;99256.81;6304222;22;20011;-96
2023/10/29 13:47:42;;;;;;;12.38;3.08;;;;;;;12.67;100.00;99256.81;6324568;22;20085;-96
2023/10/29 13:50:38;;;;;;;8.73;2.45;;;;;;;12.64;100.00;99249.91;6323339;22;20003;-96
2023/10/29 13:53:08;;;;;;;9.10;3.75;;;;;;;12.59;100.00;99236.00;6295597;22;20029;-96
2023/10/29 13:55:37;;;;;;;5.07;1.60;;;;;;;12.55;100.00;99234.31;6326547;22;19991;-96